Time;durP1;ratioP1;P1;durP2;ratioP2;P2;SDS_P1;SDS_P2;PMS_P1;PMS_P2;Temp;Humidity;BMP_temperature;BMP_pressure;BME280_temperature;BME280_humidity;BME280_pressure;Samples;Min_cycle;Max_cycle;Signal;HPM_P1;HPM_P2
2022/02/22 00:01:29;;;;;;;99.97;90.50;;;;;;;6.30;100.00;99844.34;5019185;28;20061;-80
2022/02/22 00:03:55;;;;;;;95.80;86.25;;;;;;;5.92;100.00;99833.44;5027003;28;20060;-81
2022/02/22 00:06:22;;;;;;;91.38;81.97;;;;;;;6.05;100.00;99841.44;5024192;28;20053;-80
2022/02/22 00:08:49;;;;;;;119.90;84.65;;;;;;;6.41;100.00;99827.97;5033013;28;20438;-81
2022/02/22 00:11:16;;;;;;;211.65;117.95;;;;;;;6.44;100.00;99834.63;5024448;28;20046;-79
2022/02/22 00:13:42;;;;;;;148.98;95.97;;;;;;;6.44;100.00;99842.53;5023237;28;20116;-79
2022/02/22 00:16:09;;;;;;;137.73;88.53;;;;;;;6.59;100.00;99837.91;5029638;28;20061;-80
2022/02/22 00:18:37;;;;;;;119.68;76.72;;;;;;;6.95;100.00;99825.34;5025405;28;20476;-78
2022/02/22 00:21:05;;;;;;;97.43;66.38;;;;;;;7.00;100.00;99831.63;5023700;28;20490;-80
2022/02/22 00:23:31;;;;;;;84.75;68.88;;;;;;;6.96;100.00;99827.78;5023394;28;20164;-80
2022/02/22 00:25:58;;;;;;;110.20;83.80;;;;;;;7.04;100.00;99827.56;5024209;28;20049;-80
2022/02/22 00:28:25;;;;;;;105.63;80.05;;;;;;;6.93;100.00;99828.19;5028628;28;20130;-80
2022/02/22 00:30:53;;;;;;;128.75;94.88;;;;;;;7.34;100.00;99824.47;5016228;28;20136;-79
2022/02/22 00:33:20;;;;;;;128.60;88.75;;;;;;;7.48;100.00;99818.16;5023710;28;20124;-78
2022/02/22 00:35:48;;;;;;;122.53;88.28;;;;;;;7.38;100.00;99814.31;5024745;28;20115;-79
2022/02/22 00:38:15;;;;;;;76.55;68.72;;;;;;;7.34;100.00;99820.00;5025491;28;20050;-78
2022/02/22 00:40:42;;;;;;;93.63;81.55;;;;;;;7.30;100.00;99818.81;5022037;28;20472;-79
2022/02/22 00:43:09;;;;;;;82.85;74.38;;;;;;;6.97;100.00;99812.75;5022353;28;20061;-80
2022/02/22 00:45:36;;;;;;;81.20;72.43;;;;;;;6.95;100.00;99815.59;5032367;28;20541;-79
2022/02/22 00:48:04;;;;;;;81.90;72.97;;;;;;;6.97;100.00;99821.47;5024780;28;20061;-79
2022/02/22 00:50:30;;;;;;;83.10;70.72;;;;;;;6.86;100.00;99824.72;5017495;28;20449;-80
2022/02/22 00:52:59;;;;;;;100.78;81.53;;;;;;;6.82;100.00;99815.59;5021598;28;20053;-80
2022/02/22 00:55:26;;;;;;;104.63;77.40;;;;;;;6.75;100.00;99818.25;5027607;28;20457;-78
2022/02/22 00:57:53;;;;;;;102.03;78.80;;;;;;;7.05;100.00;99797.53;5020834;28;20540;-78
2022/02/22 01:00:20;;;;;;;87.88;74.13;;;;;;;7.11;100.00;99804.63;5023715;28;20042;-80
2022/02/22 01:02:47;;;;;;;80.38;71.00;;;;;;;7.19;100.00;99795.66;5023264;28;20046;-79
2022/02/22 01:05:14;;;;;;;79.60;72.07;;;;;;;7.37;100.00;99797.66;5018431;28;20085;-78
2022/02/22 01:07:41;;;;;;;67.38;60.25;;;;;;;7.54;100.00;99800.66;5027815;28;20046;-78
2022/02/22 01:10:10;;;;;;;63.85;57.67;;;;;;;7.66;100.00;99793.72;5026209;28;20050;-81
2022/02/22 01:12:37;;;;;;;74.60;67.65;;;;;;;7.23;100.00;99793.41;5024821;28;20455;-80
2022/02/22 01:15:06;;;;;;;100.68;80.93;;;;;;;7.30;100.00;99795.03;5019923;28;20572;-81
2022/02/22 01:17:33;;;;;;;87.68;69.63;;;;;;;7.39;100.00;99790.34;5029578;28;20474;-80
2022/02/22 01:20:00;;;;;;;68.10;60.72;;;;;;;7.34;100.00;99790.16;5026470;28;20045;-79
2022/02/22 01:22:26;;;;;;;79.18;70.45;;;;;;;7.36;100.00;99793.41;5023454;28;20057;-79
2022/02/22 01:24:53;;;;;;;86.43;77.22;;;;;;;7.48;100.00;99793.56;5029726;28;20049;-79
2022/02/22 01:27:21;;;;;;;80.30;72.35;;;;;;;7.62;100.00;99792.50;5028102;28;20053;-79
2022/02/22 01:29:48;;;;;;;79.47;71.88;;;;;;;7.30;100.00;99787.09;5030878;28;20077;-80
2022/02/22 01:32:15;;;;;;;82.55;74.63;;;;;;;7.46;100.00;99780.56;5030524;28;20056;-79
2022/02/22 01:34:41;;;;;;;75.10;67.50;;;;;;;7.41;100.00;99790.94;5023233;28;20061;-79
2022/02/22 01:37:08;;;;;;;73.97;66.50;;;;;;;7.60;100.00;99786.63;5026678;28;20123;-80
2022/02/22 01:39:35;;;;;;;78.82;71.00;;;;;;;7.44;100.00;99782.59;5028420;28;20053;-80
2022/02/22 01:42:02;;;;;;;80.68;72.68;;;;;;;7.33;100.00;99786.69;5023811;28;20506;-79
2022/02/22 01:44:31;;;;;;;86.68;72.35;;;;;;;7.45;100.00;99789.50;5025218;28;20140;-80
2022/02/22 01:46:59;;;;;;;97.05;82.80;;;;;;;7.57;100.00;99794.97;5022379;28;20100;-80
2022/02/22 01:49:27;;;;;;;102.00;83.18;;;;;;;7.57;100.00;99785.19;5028138;28;20466;-78
2022/02/22 01:51:54;;;;;;;96.32;83.53;;;;;;;7.56;100.00;99780.13;5026455;28;20050;-81
2022/02/22 01:54:23;;;;;;;92.68;83.07;;;;;;;7.66;100.00;99785.78;5029798;28;20462;-80
2022/02/22 01:56:50;;;;;;;86.15;73.43;;;;;;;7.52;100.00;99784.19;5018449;28;20112;-80
2022/02/22 01:59:17;;;;;;;75.85;67.63;;;;;;;7.55;100.00;99789.88;5025699;28;20108;-79
2022/02/22 02:01:46;;;;;;;89.95;76.78;;;;;;;7.40;100.00;99785.88;5022315;28;20050;-80
2022/02/22 02:04:12;;;;;;;116.47;92.63;;;;;;;7.37;100.00;99792.38;5029804;28;20057;-79
2022/02/22 02:06:40;;;;;;;91.82;82.32;;;;;;;7.29;100.00;99795.22;5024646;28;20493;-79
2022/02/22 02:09:07;;;;;;;80.53;65.00;;;;;;;7.51;100.00;99801.91;5031066;28;20521;-80
2022/02/22 02:11:43;;;;;;;82.45;68.35;;;;;;;7.42;100.00;99799.69;5022698;28;20050;-79
2022/02/22 02:14:11;;;;;;;115.82;81.28;;;;;;;7.33;100.00;99801.75;5030109;28;20389;-80
2022/02/22 02:16:37;;;;;;;124.47;96.40;;;;;;;7.00;100.00;99799.97;5030722;28;20050;-80
2022/02/22 02:19:06;;;;;;;111.68;97.22;;;;;;;6.78;100.00;99806.47;5027802;28;20046;-79
2022/02/22 02:21:35;;;;;;;94.53;76.22;;;;;;;6.70;100.00;99806.66;5023249;28;20053;-79
2022/02/22 02:24:11;;;;;;;70.30;62.72;;;;;;;6.71;100.00;99813.56;5029879;28;20096;-80
2022/02/22 02:26:38;;;;;;;68.85;61.53;;;;;;;6.65;100.00;99804.63;5024614;28;20045;-79
2022/02/22 02:29:07;;;;;;;84.40;75.65;;;;;;;6.64;100.00;99805.66;5025033;28;20181;-81
2022/02/22 02:31:35;;;;;;;85.20;76.18;;;;;;;5.77;100.00;99816.97;5019794;28;20132;-79
2022/02/22 02:34:02;;;;;;;82.47;74.50;;;;;;;6.27;100.00;99825.47;5024931;28;20455;-82
2022/02/22 02:36:32;;;;;;;75.85;68.32;;;;;;;6.35;100.00;99820.00;5027686;28;20112;-79
2022/02/22 02:38:59;;;;;;;74.63;66.75;;;;;;;5.72;100.00;99815.75;5023175;28;20124;-79
2022/02/22 02:41:27;;;;;;;79.00;71.10;;;;;;;5.76;100.00;99815.34;5025489;28;20445;-81
2022/02/22 02:43:54;;;;;;;81.40;73.68;;;;;;;5.61;100.00;99813.66;5026529;28;20103;-80
2022/02/22 02:46:20;;;;;;;84.80;77.28;;;;;;;5.61;100.00;99815.47;5028786;28;20116;-79
2022/02/22 02:48:47;;;;;;;84.85;77.55;;;;;;;5.42;100.00;99819.63;5018907;28;20050;-80
2022/02/22 02:51:14;;;;;;;67.80;61.08;;;;;;;5.64;100.00;99818.53;5023941;28;20050;-79
2022/02/22 02:53:41;;;;;;;63.80;57.83;;;;;;;5.62;100.00;99823.16;5025265;28;20482;-79
2022/02/22 02:56:07;;;;;;;66.15;60.08;;;;;;;5.34;100.00;99820.59;5025341;28;20073;-80
2022/02/22 02:58:35;;;;;;;67.85;61.10;;;;;;;5.65;100.00;99819.34;5025709;28;20076;-79
2022/02/22 03:01:05;;;;;;;77.25;70.07;;;;;;;5.32;100.00;99813.88;5115793;23;20053;-80
2022/02/22 03:03:32;;;;;;;69.75;63.60;;;;;;;5.15;100.00;99814.19;5023022;28;20077;-81
2022/02/22 03:05:59;;;;;;;70.72;64.18;;;;;;;5.04;100.00;99814.72;5024929;28;20452;-79
2022/02/22 03:08:25;;;;;;;80.80;73.43;;;;;;;4.88;100.00;99818.44;5024006;28;20055;-81
2022/02/22 03:10:52;;;;;;;108.05;88.95;;;;;;;4.89;100.00;99814.00;5023999;28;20046;-79
2022/02/22 03:13:19;;;;;;;105.90;91.55;;;;;;;4.88;100.00;99822.91;5025139;28;20041;-79
2022/02/22 03:15:47;;;;;;;86.00;77.72;;;;;;;4.85;100.00;99813.56;5023743;28;20045;-80
2022/02/22 03:18:14;;;;;;;88.85;80.45;;;;;;;4.79;100.00;99822.22;5024349;28;20445;-81
2022/02/22 03:20:40;;;;;;;139.60;89.95;;;;;;;4.86;100.00;99827.53;5023316;28;20049;-79
2022/02/22 03:23:07;;;;;;;75.82;65.63;;;;;;;4.91;100.00;99840.94;5022292;28;20062;-78
2022/02/22 03:25:34;;;;;;;85.80;69.57;;;;;;;4.94;100.00;99837.94;5028470;28;20049;-79
2022/02/22 03:28:04;;;;;;;104.65;78.45;;;;;;;4.76;100.00;99847.09;5028194;28;20452;-79
2022/02/22 03:30:32;;;;;;;86.32;72.65;;;;;;;4.91;100.00;99833.88;5015675;28;20092;-79
2022/02/22 03:33:00;;;;;;;90.63;71.75;;;;;;;4.32;100.00;99829.66;5025865;28;20061;-80
2022/02/22 03:35:27;;;;;;;107.75;79.18;;;;;;;4.08;100.00;99830.00;5020104;28;20445;-82
2022/02/22 03:37:54;;;;;;;95.00;76.95;;;;;;;3.95;100.00;99832.50;5021064;28;20046;-80
2022/02/22 03:40:21;;;;;;;108.95;72.95;;;;;;;4.04;100.00;99826.94;5022794;28;20053;-80
2022/02/22 03:42:48;;;;;;;105.95;74.28;;;;;;;4.33;100.00;99827.88;5023476;28;20068;-80
2022/02/22 03:45:16;;;;;;;102.45;81.45;;;;;;;4.24;100.00;99835.06;5031596;28;20496;-79
2022/02/22 03:47:44;;;;;;;85.28;76.47;;;;;;;4.27;100.00;99828.63;5022687;28;20050;-79
2022/02/22 03:50:14;;;;;;;74.20;66.70;;;;;;;4.08;100.00;99835.28;5028087;28;20460;-81
2022/02/22 03:52:41;;;;;;;83.72;74.80;;;;;;;4.40;100.00;99841.91;5020015;28;20124;-79
2022/02/22 03:55:09;;;;;;;87.57;73.75;;;;;;;4.46;100.00;99843.78;5023490;28;20477;-79
2022/02/22 03:57:42;;;;;;;87.10;76.72;;;;;;;4.38;100.00;99835.19;5025801;28;20049;-78
2022/02/22 04:00:11;;;;;;;79.78;66.75;;;;;;;4.26;100.00;99843.56;5017765;28;20046;-80
2022/02/22 04:02:38;;;;;;;155.02;89.93;;;;;;;4.35;100.00;99836.38;5022083;28;20053;-80
2022/02/22 04:05:07;;;;;;;104.47;76.45;;;;;;;4.29;100.00;99840.56;5030686;28;20477;-79
2022/02/22 04:07:36;;;;;;;106.60;76.43;;;;;;;4.20;100.00;99846.94;5020960;28;20108;-82
2022/02/22 04:10:04;;;;;;;119.95;83.05;;;;;;;4.29;100.00;99845.81;5023486;28;20082;-80
2022/02/22 04:12:31;;;;;;;118.55;81.57;;;;;;;4.00;100.00;99846.72;5022722;28;20042;-81
2022/02/22 04:14:58;;;;;;;104.90;72.47;;;;;;;4.06;100.00;99848.59;5033789;28;20057;-81
2022/02/22 04:17:25;;;;;;;97.70;72.03;;;;;;;4.22;100.00;99849.38;5027418;28;20119;-81
2022/02/22 04:19:52;;;;;;;95.57;82.20;;;;;;;3.58;100.00;99848.19;5019730;28;20457;-82
2022/02/22 04:22:20;;;;;;;91.32;74.90;;;;;;;3.90;100.00;99857.53;5027661;28;20053;-78
2022/02/22 04:24:48;;;;;;;94.47;82.07;;;;;;;3.88;100.00;99859.50;5026674;28;20478;-79
2022/02/22 04:27:15;;;;;;;94.53;80.20;;;;;;;3.95;100.00;99866.66;5024888;28;20046;-79
2022/02/22 04:29:42;;;;;;;85.63;72.50;;;;;;;3.76;100.00;99870.66;5027009;28;20053;-81
2022/02/22 04:32:09;;;;;;;81.40;66.47;;;;;;;3.74;100.00;99868.22;5027664;28;20473;-80
2022/02/22 04:34:37;;;;;;;90.18;80.75;;;;;;;3.70;100.00;99868.78;5022028;28;20068;-80
2022/02/22 04:37:05;;;;;;;102.43;92.43;;;;;;;3.77;100.00;99875.72;5023591;28;20140;-79
2022/02/22 04:39:31;;;;;;;105.05;94.85;;;;;;;3.42;100.00;99875.47;5023054;28;20545;-81
2022/02/22 04:41:59;;;;;;;89.93;80.45;;;;;;;3.64;100.00;99879.00;5027605;28;20045;-81
2022/02/22 04:44:26;;;;;;;97.93;87.72;;;;;;;3.90;100.00;99877.69;5028261;28;20049;-80
2022/02/22 04:46:53;;;;;;;89.60;81.25;;;;;;;3.19;100.00;99885.19;5029848;28;20053;-78
2022/02/22 04:49:20;;;;;;;84.55;75.43;;;;;;;3.08;100.00;99885.59;5027403;28;20474;-79
2022/02/22 04:51:47;;;;;;;81.35;72.38;;;;;;;3.16;100.00;99888.97;5027074;28;20129;-79
2022/02/22 04:54:14;;;;;;;75.55;63.90;;;;;;;3.51;100.00;99891.09;5023947;28;20053;-79
2022/02/22 04:56:40;;;;;;;85.55;76.25;;;;;;;3.53;100.00;99892.56;5028426;28;20049;-80
2022/02/22 04:59:09;;;;;;;73.82;62.38;;;;;;;3.51;100.00;99889.31;5026067;28;20050;-79
2022/02/22 05:01:35;;;;;;;77.72;69.32;;;;;;;3.54;100.00;99903.88;5021070;28;20456;-79
2022/02/22 05:04:02;;;;;;;80.93;70.95;;;;;;;3.35;100.00;99898.16;5024255;28;20490;-79
2022/02/22 05:06:29;;;;;;;80.70;72.07;;;;;;;3.44;100.00;99888.38;5025142;28;20053;-80
2022/02/22 05:08:56;;;;;;;81.72;72.90;;;;;;;3.52;100.00;99898.81;5029406;28;20050;-79
2022/02/22 05:11:22;;;;;;;95.28;69.60;;;;;;;3.55;100.00;99889.78;5022420;28;20050;-80
2022/02/22 05:13:49;;;;;;;89.40;66.13;;;;;;;3.12;100.00;99886.91;5029866;28;20464;-78
2022/02/22 05:16:17;;;;;;;100.07;77.38;;;;;;;3.09;100.00;99892.50;5026990;28;20104;-80
2022/02/22 05:18:44;;;;;;;88.25;77.65;;;;;;;3.40;100.00;99892.38;5026058;28;20064;-78
2022/02/22 05:21:11;;;;;;;89.72;74.35;;;;;;;3.18;100.00;99900.13;5024423;28;20046;-80
2022/02/22 05:23:37;;;;;;;77.47;69.57;;;;;;;3.27;100.00;99911.38;5026643;28;20123;-79
2022/02/22 05:26:06;;;;;;;76.25;68.85;;;;;;;3.46;100.00;99906.59;5027302;28;20057;-79
2022/02/22 05:28:33;;;;;;;70.50;63.35;;;;;;;3.64;100.00;99910.50;5024522;28;20045;-82
2022/02/22 05:31:00;;;;;;;65.32;58.45;;;;;;;3.76;100.00;99913.50;5033395;28;20057;-79
2022/02/22 05:33:41;;;;;;;65.60;58.67;;;;;;;3.99;100.00;99923.09;5026158;28;20103;-80
2022/02/22 05:36:07;;;;;;;67.18;58.10;;;;;;;3.87;100.00;99907.81;5026597;28;20053;-79
2022/02/22 05:38:34;;;;;;;68.30;60.92;;;;;;;3.89;100.00;99905.78;5025638;28;20382;-81
2022/02/22 05:41:01;;;;;;;74.40;65.15;;;;;;;4.00;100.00;99906.34;5021065;28;20053;-80
2022/02/22 05:43:28;;;;;;;68.95;61.70;;;;;;;3.79;100.00;99910.50;5016386;28;20524;-79
2022/02/22 05:45:55;;;;;;;66.28;58.88;;;;;;;4.10;100.00;99907.69;5017971;28;20041;-79
2022/02/22 05:48:22;;;;;;;61.00;53.28;;;;;;;4.47;100.00;99911.13;5025840;28;20072;-79
2022/02/22 05:50:50;;;;;;;62.33;56.00;;;;;;;4.73;100.00;99912.44;5031260;28;20045;-81
2022/02/22 05:53:17;;;;;;;66.95;60.58;;;;;;;4.69;100.00;99919.88;5026307;28;20089;-80
2022/02/22 05:55:44;;;;;;;86.32;77.13;;;;;;;4.54;100.00;99912.03;5024241;28;20475;-80
2022/02/22 05:58:11;;;;;;;83.70;74.95;;;;;;;4.40;100.00;99917.34;5029696;28;20049;-79
2022/02/22 06:00:37;;;;;;;87.38;77.75;;;;;;;4.61;100.00;99922.63;5017201;28;20119;-82
2022/02/22 06:03:04;;;;;;;109.25;93.03;;;;;;;4.45;100.00;99938.59;5026297;28;20054;-79
2022/02/22 06:05:31;;;;;;;103.15;87.60;;;;;;;4.57;100.00;99940.59;5022182;28;20046;-79
2022/02/22 06:07:59;;;;;;;105.72;88.93;;;;;;;4.64;100.00;99943.28;5025855;28;20050;-80
2022/02/22 06:10:28;;;;;;;106.85;94.88;;;;;;;4.67;100.00;99950.00;5020769;28;20049;-80
2022/02/22 06:12:55;;;;;;;121.85;108.22;;;;;;;4.80;100.00;99960.66;5021164;28;20050;-79
2022/02/22 06:15:22;;;;;;;116.20;103.18;;;;;;;4.77;100.00;99964.47;5035126;28;20045;-79
2022/02/22 06:17:49;;;;;;;106.90;93.88;;;;;;;5.10;100.00;99968.44;5028315;28;20050;-80
2022/02/22 06:20:16;;;;;;;114.75;102.55;;;;;;;5.38;100.00;99974.56;5027278;28;20057;-78
2022/02/22 06:22:43;;;;;;;157.40;112.95;;;;;;;5.34;100.00;99962.78;5021405;28;20449;-82
2022/02/22 06:25:12;;;;;;;175.63;128.68;;;;;;;5.69;100.00;99963.69;5030716;28;20045;-81
2022/02/22 06:27:49;;;;;;;216.45;150.48;;;;;;;5.99;100.00;99960.03;5023192;28;20397;-81
2022/02/22 06:30:16;;;;;;;184.18;136.80;;;;;;;6.18;100.00;99962.78;5033309;28;20049;-80
2022/02/22 06:32:43;;;;;;;151.65;123.18;;;;;;;6.30;100.00;99970.94;5021013;28;20054;-83
2022/02/22 06:35:10;;;;;;;142.98;123.75;;;;;;;6.77;100.00;99979.84;5028977;28;20049;-79
2022/02/22 06:37:38;;;;;;;114.30;102.00;;;;;;;7.34;100.00;99990.91;5022429;28;20111;-80
2022/02/22 06:40:06;;;;;;;122.75;104.97;;;;;;;7.87;100.00;99987.47;5032871;28;20465;-79
2022/02/22 06:42:35;;;;;;;120.03;100.60;;;;;;;6.82;100.00;99987.16;5036698;28;20124;-80
2022/02/22 06:45:02;;;;;;;102.82;91.75;;;;;;;6.97;100.00;100006.31;5041179;28;20053;-81
2022/02/22 06:47:29;;;;;;;110.15;95.15;;;;;;;7.20;100.00;99997.19;5027467;28;20046;-80
2022/02/22 06:49:56;;;;;;;83.45;75.50;;;;;;;7.65;100.00;100005.34;5027130;28;20049;-80
2022/02/22 06:52:23;;;;;;;88.85;80.82;;;;;;;8.14;100.00;100010.19;5041955;28;20081;-79
2022/02/22 06:54:51;;;;;;;86.75;79.10;;;;;;;8.31;100.00;100017.66;5036401;28;20080;-80
2022/02/22 06:57:18;;;;;;;81.80;74.90;;;;;;;8.39;100.00;100013.00;5033107;28;20061;-81
2022/02/22 06:59:46;;;;;;;78.22;71.78;;;;;;;9.00;100.00;100026.78;5031902;28;20077;-80
2022/02/22 07:02:12;;;;;;;84.43;77.57;;;;;;;8.70;100.00;100024.69;5029529;28;20054;-78
2022/02/22 07:04:45;;;;;;;84.32;77.13;;;;;;;8.89;100.00;100028.25;5039604;28;20049;-80
2022/02/22 07:07:13;;;;;;;;;;;;;;;8.77;100.00;100032.59;5037707;28;20057;-78
2022/02/22 07:09:40;;;;;;;99.07;91.07;;;;;;;9.22;100.00;100030.72;5031032;28;19983;-80
2022/02/22 07:12:10;;;;;;;90.18;82.78;;;;;;;9.23;100.00;100031.53;5041183;28;20050;-80
2022/02/22 07:14:36;;;;;;;83.57;76.78;;;;;;;9.34;100.00;100036.16;5037204;28;20042;-80
2022/02/22 07:17:07;;;;;;;75.20;68.90;;;;;;;9.50;100.00;100042.78;5038426;28;20084;-80
2022/02/22 07:19:34;;;;;;;76.65;70.22;;;;;;;8.93;100.00;100046.19;5039194;28;20096;-78
2022/02/22 07:22:05;;;;;;;82.32;75.55;;;;;;;8.56;100.00;100046.94;5041141;28;20057;-78
2022/02/22 07:24:32;;;;;;;84.70;77.93;;;;;;;8.66;100.00;100050.78;5030322;28;20073;-81
2022/02/22 07:26:59;;;;;;;89.80;82.03;;;;;;;8.71;100.00;100056.25;5040941;28;20050;-80
2022/02/22 07:29:26;;;;;;;88.07;80.18;;;;;;;8.75;100.00;100066.44;5034194;28;20049;-79
2022/02/22 07:31:54;;;;;;;83.40;75.40;;;;;;;9.55;100.00;100064.16;5033451;28;20186;-80
2022/02/22 07:34:22;;;;;;;89.28;81.57;;;;;;;9.37;100.00;100065.69;5030677;28;20041;-79
2022/02/22 07:36:48;;;;;;;97.88;90.10;;;;;;;8.86;100.00;100079.00;5033066;28;20054;-78
2022/02/22 07:39:15;;;;;;;96.10;87.85;;;;;;;8.34;100.00;100094.78;5032993;28;20041;-78
2022/02/22 07:41:43;;;;;;;94.00;85.53;;;;;;;8.25;100.00;100088.91;5037162;28;20375;-80
2022/02/22 07:44:10;;;;;;;92.20;84.00;;;;;;;8.16;100.00;100092.78;5031817;28;20046;-79
2022/02/22 07:46:37;;;;;;;78.30;70.75;;;;;;;8.76;100.00;100086.59;5028605;28;20143;-80
2022/02/22 07:49:04;;;;;;;84.03;76.30;;;;;;;8.84;100.00;100091.66;5041753;28;20111;-78
2022/02/22 07:51:32;;;;;;;79.18;72.25;;;;;;;8.88;100.00;100100.78;5033249;28;20131;-80
2022/02/22 07:53:58;;;;;;;86.88;79.38;;;;;;;8.42;100.00;100102.56;5034365;28;20041;-79
2022/02/22 07:56:31;;;;;;;91.30;83.32;;;;;;;8.92;100.00;100109.94;5036617;28;20442;-79
2022/02/22 07:58:57;;;;;;;87.00;79.38;;;;;;;9.15;100.00;100117.41;5024698;28;20049;-79
2022/02/22 08:01:24;;;;;;;85.68;77.63;;;;;;;9.19;100.00;100115.94;5027916;28;20073;-79
2022/02/22 08:03:51;;;;;;;96.65;87.25;;;;;;;8.68;100.00;100122.03;5033883;28;20061;-78
2022/02/22 08:06:25;;;;;;;102.97;93.90;;;;;;;8.86;100.00;100124.81;5031866;28;20532;-78
2022/02/22 08:08:53;;;;;;;97.80;89.35;;;;;;;9.31;100.00;100135.44;5040358;28;20555;-78
2022/02/22 08:11:20;;;;;;;99.70;90.70;;;;;;;9.25;100.00;100124.88;5027440;28;20049;-79
2022/02/22 08:13:48;;;;;;;83.97;76.10;;;;;;;9.12;100.00;100131.06;5041987;28;20049;-80
2022/02/22 08:16:14;;;;;;;86.55;78.45;;;;;;;9.00;100.00;100132.75;5041413;28;20104;-80
2022/02/22 08:18:42;;;;;;;95.88;87.07;;;;;;;8.95;100.00;100141.31;5040379;28;20149;-80
2022/02/22 08:21:09;;;;;;;94.25;85.50;;;;;;;9.02;100.00;100136.81;5033094;28;20046;-78
2022/02/22 08:23:38;;;;;;;83.78;76.53;;;;;;;9.18;100.00;100128.38;5040896;28;20050;-77
2022/02/22 08:26:06;;;;;;;86.03;77.78;;;;;;;9.00;100.00;100135.41;5037043;28;20045;-80
2022/02/22 08:28:33;;;;;;;92.68;84.10;;;;;;;8.98;100.00;100140.06;5030813;28;20054;-79
2022/02/22 08:31:06;;;;;;;102.10;92.43;;;;;;;9.47;100.00;100139.47;5034499;28;20077;-80
2022/02/22 08:33:33;;;;;;;95.78;87.40;;;;;;;8.86;100.00;100139.91;5038987;28;20046;-79
2022/02/22 08:35:59;;;;;;;105.10;96.20;;;;;;;8.72;100.00;100141.78;5037784;28;20053;-78
2022/02/22 08:38:28;;;;;;;109.72;100.93;;;;;;;8.95;100.00;100143.94;5032892;28;20050;-77
2022/02/22 08:40:54;;;;;;;101.65;93.30;;;;;;;9.25;100.00;100148.72;5037671;28;20054;-80
2022/02/22 08:43:22;;;;;;;98.65;90.30;;;;;;;9.09;100.00;100150.84;5039449;28;20053;-78
2022/02/22 08:45:49;;;;;;;93.28;85.53;;;;;;;9.29;100.00;100149.94;5031609;28;20061;-77
2022/02/22 08:48:16;;;;;;;101.13;93.07;;;;;;;9.48;100.00;100151.69;5044789;28;20061;-78
2022/02/22 08:50:44;;;;;;;95.20;87.25;;;;;;;9.22;100.00;100149.16;5044469;28;20049;-78
2022/02/22 08:53:11;;;;;;;91.65;83.75;;;;;;;9.63;100.00;100154.06;5034180;28;20558;-79
2022/02/22 08:55:42;;;;;;;82.07;75.50;;;;;;;9.61;100.00;100156.91;5041109;28;20046;-79
2022/02/22 08:58:10;;;;;;;86.20;78.90;;;;;;;9.30;100.00;100154.22;5040726;28;20105;-78
2022/02/22 09:00:38;;;;;;;93.97;86.57;;;;;;;10.25;100.00;100160.31;5027821;28;20050;-79
2022/02/22 09:03:05;;;;;;;106.10;97.78;;;;;;;10.09;100.00;100159.03;5035940;28;20127;-78
2022/02/22 09:05:39;;;;;;;112.22;103.47;;;;;;;9.68;100.00;100156.03;5048684;28;20054;-79
2022/02/22 09:08:06;;;;;;;98.97;91.18;;;;;;;9.75;100.00;100157.66;5041507;28;20088;-77
2022/02/22 09:10:36;;;;;;;93.82;86.63;;;;;;;9.70;100.00;100151.34;5043397;28;20068;-77
2022/02/22 09:13:03;;;;;;;105.15;96.55;;;;;;;9.71;100.00;100147.66;5045177;28;20045;-78
2022/02/22 09:15:31;;;;;;;97.85;90.22;;;;;;;10.02;100.00;100141.56;5038220;28;20064;-78
2022/02/22 09:18:01;;;;;;;102.32;94.07;;;;;;;9.84;100.00;100142.28;5035906;28;20137;-79
2022/02/22 09:20:28;;;;;;;104.15;95.85;;;;;;;9.88;100.00;100155.94;5032547;28;20046;-80
2022/02/22 09:22:54;;;;;;;95.05;86.88;;;;;;;9.73;100.00;100154.38;5034603;28;20045;-79
2022/02/22 09:25:21;;;;;;;101.18;92.07;;;;;;;10.07;100.00;100155.75;5034064;28;20478;-79
2022/02/22 09:27:48;;;;;;;83.38;76.15;;;;;;;10.13;100.00;100147.97;5041425;28;20074;-80
2022/02/22 09:30:17;;;;;;;88.95;81.18;;;;;;;10.16;100.00;100153.66;5045828;28;20103;-80
2022/02/22 09:32:45;;;;;;;96.95;88.75;;;;;;;10.34;100.00;100154.78;5026702;28;20050;-80
2022/02/22 09:35:16;;;;;;;104.78;95.20;;;;;;;10.40;100.00;100156.56;5033604;28;20077;-79
2022/02/22 09:37:43;;;;;;;111.60;102.75;;;;;;;10.35;100.00;100157.22;5043691;28;20219;-79
2022/02/22 09:40:17;;;;;;;85.63;78.32;;;;;;;10.44;100.00;100157.75;5032972;28;20125;-80
2022/02/22 09:42:44;;;;;;;84.03;77.05;;;;;;;10.37;100.00;100159.66;5041317;28;20471;-79
2022/02/22 09:45:13;;;;;;;92.68;83.75;;;;;;;10.81;100.00;100165.78;5046300;28;20045;-79
2022/02/22 09:47:42;;;;;;;104.07;94.38;;;;;;;11.39;100.00;100159.97;5040281;28;20037;-80
2022/02/22 09:50:12;;;;;;;80.35;73.57;;;;;;;10.97;100.00;100160.66;5039939;28;20057;-79
2022/02/22 09:52:40;;;;;;;81.85;74.45;;;;;;;11.28;100.00;100150.91;5048802;28;20046;-80
2022/02/22 09:55:10;;;;;;;94.13;86.28;;;;;;;10.83;100.00;100159.19;5038131;28;20076;-79
2022/02/22 09:57:38;;;;;;;113.30;103.97;;;;;;;10.46;100.00;100169.78;5037682;28;20053;-80
2022/02/22 10:00:18;;;;;;;104.68;95.88;;;;;;;10.74;100.00;100171.97;5034240;28;20119;-80
2022/02/22 10:02:45;;;;;;;107.57;97.75;;;;;;;10.78;100.00;100175.00;5035992;28;20098;-80
2022/02/22 10:05:14;;;;;;;110.75;101.47;;;;;;;11.17;100.00;100173.75;5035553;28;20042;-79
2022/02/22 10:07:51;;;;;;;111.82;102.50;;;;;;;11.31;100.00;100171.72;5039345;28;20568;-80
2022/02/22 10:10:35;;;;;;;107.88;98.90;;;;;;;11.23;100.00;100175.50;5035243;28;20049;-79
2022/02/22 10:13:02;;;;;;;99.90;91.15;;;;;;;11.04;100.00;100171.22;5043996;28;20060;-81
2022/02/22 10:15:38;;;;;;;103.03;93.85;;;;;;;10.93;100.00;100169.31;5035216;28;20045;-78
2022/02/22 10:18:04;;;;;;;101.22;92.75;;;;;;;11.11;100.00;100168.50;5038248;28;20049;-82
2022/02/22 10:20:34;;;;;;;106.47;97.68;;;;;;;11.17;100.00;100165.78;5039149;28;20080;-81
2022/02/22 10:23:06;;;;;;;100.68;92.18;;;;;;;11.18;100.00;100172.69;5044549;28;20064;-79
2022/02/22 10:25:33;;;;;;;90.78;83.35;;;;;;;11.09;100.00;100170.56;5030471;28;20490;-80
2022/02/22 10:28:01;;;;;;;101.60;93.05;;;;;;;11.34;100.00;100162.50;5036796;28;20046;-79
2022/02/22 10:30:41;;;;;;;100.13;92.03;;;;;;;11.49;100.00;100165.56;5047167;28;20057;-80
2022/02/22 10:33:17;;;;;;;89.30;81.35;;;;;;;11.66;100.00;100171.88;5025488;28;20050;-78
2022/02/22 10:35:46;;;;;;;83.68;77.15;;;;;;;13.29;100.00;100166.06;5027792;28;20103;-79
2022/02/22 10:38:21;;;;;;;84.88;78.05;;;;;;;12.40;100.00;100168.13;5030580;28;20046;-79
2022/02/22 10:41:01;;;;;;;97.93;90.25;;;;;;;12.11;100.00;100173.31;5041682;28;20453;-79
2022/02/22 10:43:33;;;;;;;72.43;66.00;;;;;;;11.68;100.00;100166.34;5039015;28;20046;-78
2022/02/22 10:46:09;;;;;;;77.25;70.38;;;;;;;11.65;100.00;100172.94;5014604;28;20060;-79
2022/02/22 10:48:38;;;;;;;80.30;73.68;;;;;;;11.39;100.00;100167.94;5030761;28;20049;-79
2022/02/22 10:51:06;;;;;;;88.78;81.53;;;;;;;11.26;100.00;100160.16;5036335;28;20049;-81
2022/02/22 10:53:36;;;;;;;83.35;76.47;;;;;;;11.48;100.00;100160.47;5041049;28;20077;-80
2022/02/22 10:56:05;;;;;;;85.18;78.03;;;;;;;11.80;100.00;100169.03;5028189;28;20057;-79
2022/02/22 10:58:40;;;;;;;80.75;73.82;;;;;;;11.48;100.00;100161.28;5037975;28;20045;-80
2022/02/22 11:01:10;;;;;;;79.80;72.93;;;;;;;11.57;100.00;100175.09;5042097;28;20042;-78
2022/02/22 11:03:51;;;;;;;83.40;76.50;;;;;;;11.72;100.00;100166.69;5035436;28;20058;-81
2022/02/22 11:06:19;;;;;;;84.45;77.55;;;;;;;11.91;100.00;100174.41;5038635;28;20054;-78
2022/02/22 11:08:49;;;;;;;91.85;84.88;;;;;;;11.76;100.00;100179.31;5042618;28;20118;-79
2022/02/22 11:11:18;;;;;;;87.55;80.65;;;;;;;11.36;100.00;100179.84;5039999;28;20064;-78
2022/02/22 11:13:56;;;;;;;91.95;84.53;;;;;;;11.34;100.00;100181.09;5039950;28;20060;-79